KRID/RID METAR and TAF weather

Enter ICAO airport designator
Station Type Date Time Source
KRID METAR 2019/05/23 10:55 UTC NOAA

KRID 231055Z AUTO 27010G20KT 207V297 10SM SCT039 SCT050 BKN080 20/20 A3008 RMK AO2


Station Type Date Time Source
KRID Decoded METAR 2019/05/23 10:55 UTC NOAA

Station name not available
May 23, 2019 - 06:55 AM EDT / 2019.05.23 1055 UTC
Wind: from the W (270 degrees) at 12 MPH (10 KT) gusting to 23 MPH (20 KT) (direction variable):0
Visibility: 10 mile(s):0
Sky conditions: mostly cloudy
Temperature: 68 F (20 C)
Dew Point: 68 F (20 C)
Relative Humidity: 100%
Pressure (altimeter): 30.08 in. Hg (1018 hPa)
ob: KRID 231055Z AUTO 27010G20KT 207V297 10SM SCT039 SCT050 BKN080 20/20 A3008 RMK AO2
cycle: 11

Station Type Date Time Source
KRID TAF UTC NOAA

Error!

Example: see airport list